Terminal Aerodrome Forecast
Issued by NWS

Home | Current Version | Previous Version | Text Only | Print | Product List | Glossary On
Versions: 1 2 3 4 5 6 7 8 9 10 11 12
000
FTUS45 KTFX 131745 AAA
TAFBZN
TAF AMD
KBZN 131745Z 1318/1424 00000KT 3SM -SN BKN030 OVC070
      TEMPO 1318/1322 3/4SM -SN OVC025
     FM140000 00000KT 5SM BR VCSH FEW003 BKN030
      TEMPO 1400/1403 2SM BR BKN003
     FM140900 00000KT P6SM SCT070 BKN110=

USA.gov is the U.S. government's official web portal to all federal, state and local government web resources and services.